sensor_id;sensor_type;location;lat;lon;timestamp;P1;durP1;ratioP1;P2;durP2;ratioP2
17570;SDS011;8903;52.220;20.978;2023-05-10T00:02:11;11.23;;;9.17;;
17570;SDS011;8903;52.220;20.978;2023-05-10T00:04:38;9.07;;;7.90;;
17570;SDS011;8903;52.220;20.978;2023-05-10T00:07:06;13.47;;;8.13;;
17570;SDS011;8903;52.220;20.978;2023-05-10T00:09:34;9.00;;;7.57;;
17570;SDS011;8903;52.220;20.978;2023-05-10T00:12:00;10.87;;;7.07;;
17570;SDS011;8903;52.220;20.978;2023-05-10T00:14:27;9.93;;;6.83;;
17570;SDS011;8903;52.220;20.978;2023-05-10T00:16:55;9.93;;;8.00;;
17570;SDS011;8903;52.220;20.978;2023-05-10T00:19:21;9.83;;;6.80;;
17570;SDS011;8903;52.220;20.978;2023-05-10T00:21:49;11.77;;;8.27;;
17570;SDS011;8903;52.220;20.978;2023-05-10T00:24:17;8.53;;;6.50;;
17570;SDS011;8903;52.220;20.978;2023-05-10T00:26:44;10.90;;;6.83;;
17570;SDS011;8903;52.220;20.978;2023-05-10T00:29:11;10.03;;;8.30;;
17570;SDS011;8903;52.220;20.978;2023-05-10T00:31:38;9.90;;;6.60;;
17570;SDS011;8903;52.220;20.978;2023-05-10T00:34:05;9.03;;;6.50;;
17570;SDS011;8903;52.220;20.978;2023-05-10T00:36:32;9.40;;;6.70;;
17570;SDS011;8903;52.220;20.978;2023-05-10T00:38:59;11.33;;;7.37;;
17570;SDS011;8903;52.220;20.978;2023-05-10T00:41:30;10.30;;;7.03;;
17570;SDS011;8903;52.220;20.978;2023-05-10T00:43:59;9.03;;;6.80;;
17570;SDS011;8903;52.220;20.978;2023-05-10T00:46:27;7.17;;;6.40;;
17570;SDS011;8903;52.220;20.978;2023-05-10T00:48:56;9.57;;;6.33;;
17570;SDS011;8903;52.220;20.978;2023-05-10T00:51:23;11.93;;;6.73;;
17570;SDS011;8903;52.220;20.978;2023-05-10T00:53:51;9.03;;;7.00;;
17570;SDS011;8903;52.220;20.978;2023-05-10T00:56:18;7.30;;;6.00;;
17570;SDS011;8903;52.220;20.978;2023-05-10T00:58:49;9.47;;;6.30;;
17570;SDS011;8903;52.220;20.978;2023-05-10T01:01:16;12.20;;;7.03;;
17570;SDS011;8903;52.220;20.978;2023-05-10T01:03:43;11.30;;;6.60;;
17570;SDS011;8903;52.220;20.978;2023-05-10T01:06:12;7.40;;;6.30;;
17570;SDS011;8903;52.220;20.978;2023-05-10T01:08:39;8.67;;;6.90;;
17570;SDS011;8903;52.220;20.978;2023-05-10T01:11:07;11.90;;;7.47;;
17570;SDS011;8903;52.220;20.978;2023-05-10T01:13:34;10.27;;;5.93;;
17570;SDS011;8903;52.220;20.978;2023-05-10T01:16:04;9.07;;;6.03;;
17570;SDS011;8903;52.220;20.978;2023-05-10T01:18:33;8.30;;;6.20;;
17570;SDS011;8903;52.220;20.978;2023-05-10T01:21:04;12.20;;;6.00;;
17570;SDS011;8903;52.220;20.978;2023-05-10T01:23:44;10.60;;;7.00;;
17570;SDS011;8903;52.220;20.978;2023-05-10T01:26:25;6.20;;;5.37;;
17570;SDS011;8903;52.220;20.978;2023-05-10T01:29:19;9.00;;;6.20;;
17570;SDS011;8903;52.220;20.978;2023-05-10T01:32:20;8.40;;;6.40;;
17570;SDS011;8903;52.220;20.978;2023-05-10T01:34:54;12.63;;;6.03;;
17570;SDS011;8903;52.220;20.978;2023-05-10T01:37:28;9.77;;;6.33;;
17570;SDS011;8903;52.220;20.978;2023-05-10T01:40:03;9.07;;;6.37;;
17570;SDS011;8903;52.220;20.978;2023-05-10T01:42:40;8.77;;;6.20;;
17570;SDS011;8903;52.220;20.978;2023-05-10T01:45:14;6.37;;;4.80;;
17570;SDS011;8903;52.220;20.978;2023-05-10T01:47:48;9.80;;;6.00;;
17570;SDS011;8903;52.220;20.978;2023-05-10T01:50:22;8.57;;;5.50;;
17570;SDS011;8903;52.220;20.978;2023-05-10T01:52:55;5.57;;;4.97;;
17570;SDS011;8903;52.220;20.978;2023-05-10T01:55:24;10.80;;;6.37;;
17570;SDS011;8903;52.220;20.978;2023-05-10T01:57:56;10.67;;;5.93;;
17570;SDS011;8903;52.220;20.978;2023-05-10T02:00:27;5.60;;;4.93;;
17570;SDS011;8903;52.220;20.978;2023-05-10T02:02:57;7.30;;;4.93;;
17570;SDS011;8903;52.220;20.978;2023-05-10T02:05:26;10.53;;;6.27;;
17570;SDS011;8903;52.220;20.978;2023-05-10T02:07:56;8.20;;;6.17;;
17570;SDS011;8903;52.220;20.978;2023-05-10T02:10:25;12.23;;;5.90;;
17570;SDS011;8903;52.220;20.978;2023-05-10T02:12:54;9.83;;;5.57;;
17570;SDS011;8903;52.220;20.978;2023-05-10T02:15:24;7.73;;;5.77;;
17570;SDS011;8903;52.220;20.978;2023-05-10T02:17:54;6.67;;;5.57;;
17570;SDS011;8903;52.220;20.978;2023-05-10T02:20:23;7.90;;;5.27;;
17570;SDS011;8903;52.220;20.978;2023-05-10T02:22:52;8.97;;;7.00;;
17570;SDS011;8903;52.220;20.978;2023-05-10T02:25:22;9.80;;;5.50;;
17570;SDS011;8903;52.220;20.978;2023-05-10T02:27:50;5.70;;;4.70;;
17570;SDS011;8903;52.220;20.978;2023-05-10T02:30:20;6.47;;;5.83;;
17570;SDS011;8903;52.220;20.978;2023-05-10T02:32:49;6.80;;;5.07;;
17570;SDS011;8903;52.220;20.978;2023-05-10T02:35:16;9.20;;;5.20;;
17570;SDS011;8903;52.220;20.978;2023-05-10T02:37:46;11.17;;;5.07;;
17570;SDS011;8903;52.220;20.978;2023-05-10T02:40:14;8.80;;;5.37;;
17570;SDS011;8903;52.220;20.978;2023-05-10T02:42:43;10.23;;;5.50;;
17570;SDS011;8903;52.220;20.978;2023-05-10T02:45:19;8.10;;;4.80;;
17570;SDS011;8903;52.220;20.978;2023-05-10T02:47:50;6.77;;;4.60;;
17570;SDS011;8903;52.220;20.978;2023-05-10T02:50:17;7.60;;;5.47;;
17570;SDS011;8903;52.220;20.978;2023-05-10T02:52:46;8.53;;;5.27;;
17570;SDS011;8903;52.220;20.978;2023-05-10T02:55:17;7.47;;;5.43;;
17570;SDS011;8903;52.220;20.978;2023-05-10T02:57:48;8.80;;;5.67;;
17570;SDS011;8903;52.220;20.978;2023-05-10T03:00:18;6.33;;;4.50;;
17570;SDS011;8903;52.220;20.978;2023-05-10T03:02:46;9.13;;;5.73;;
17570;SDS011;8903;52.220;20.978;2023-05-10T03:05:13;6.33;;;5.20;;
17570;SDS011;8903;52.220;20.978;2023-05-10T03:07:40;8.70;;;4.77;;
17570;SDS011;8903;52.220;20.978;2023-05-10T03:10:09;6.60;;;4.70;;
17570;SDS011;8903;52.220;20.978;2023-05-10T03:12:41;8.07;;;5.40;;
17570;SDS011;8903;52.220;20.978;2023-05-10T03:15:24;8.30;;;5.47;;
17570;SDS011;8903;52.220;20.978;2023-05-10T03:18:01;8.30;;;6.10;;
17570;SDS011;8903;52.220;20.978;2023-05-10T03:20:34;6.40;;;5.23;;
17570;SDS011;8903;52.220;20.978;2023-05-10T03:23:04;7.50;;;5.13;;
17570;SDS011;8903;52.220;20.978;2023-05-10T03:25:39;10.40;;;5.77;;
17570;SDS011;8903;52.220;20.978;2023-05-10T03:28:09;11.00;;;5.40;;
17570;SDS011;8903;52.220;20.978;2023-05-10T03:30:37;7.97;;;5.03;;
17570;SDS011;8903;52.220;20.978;2023-05-10T03:33:06;12.33;;;6.40;;
17570;SDS011;8903;52.220;20.978;2023-05-10T03:35:37;7.70;;;5.73;;
17570;SDS011;8903;52.220;20.978;2023-05-10T03:38:05;6.53;;;5.07;;
17570;SDS011;8903;52.220;20.978;2023-05-10T03:40:32;7.23;;;5.13;;
17570;SDS011;8903;52.220;20.978;2023-05-10T03:43:01;9.03;;;5.00;;
17570;SDS011;8903;52.220;20.978;2023-05-10T03:45:28;12.27;;;6.20;;
17570;SDS011;8903;52.220;20.978;2023-05-10T03:47:56;10.00;;;6.20;;
17570;SDS011;8903;52.220;20.978;2023-05-10T03:50:24;13.97;;;7.10;;
17570;SDS011;8903;52.220;20.978;2023-05-10T03:52:52;6.60;;;4.90;;
17570;SDS011;8903;52.220;20.978;2023-05-10T03:55:19;12.80;;;6.10;;
17570;SDS011;8903;52.220;20.978;2023-05-10T03:57:47;12.33;;;6.57;;
17570;SDS011;8903;52.220;20.978;2023-05-10T04:00:17;5.80;;;5.03;;
17570;SDS011;8903;52.220;20.978;2023-05-10T04:02:49;10.37;;;4.77;;
17570;SDS011;8903;52.220;20.978;2023-05-10T04:05:18;5.73;;;5.10;;
17570;SDS011;8903;52.220;20.978;2023-05-10T04:07:45;6.37;;;4.93;;
17570;SDS011;8903;52.220;20.978;2023-05-10T04:10:14;8.50;;;5.13;;
17570;SDS011;8903;52.220;20.978;2023-05-10T04:12:42;7.80;;;5.67;;
17570;SDS011;8903;52.220;20.978;2023-05-10T04:15:09;10.53;;;6.10;;
17570;SDS011;8903;52.220;20.978;2023-05-10T04:17:38;8.20;;;4.70;;
17570;SDS011;8903;52.220;20.978;2023-05-10T04:20:05;7.20;;;5.20;;
17570;SDS011;8903;52.220;20.978;2023-05-10T04:22:33;6.13;;;4.63;;
17570;SDS011;8903;52.220;20.978;2023-05-10T04:25:00;9.00;;;5.30;;
17570;SDS011;8903;52.220;20.978;2023-05-10T04:27:27;7.43;;;5.20;;
17570;SDS011;8903;52.220;20.978;2023-05-10T04:29:54;11.17;;;5.60;;
17570;SDS011;8903;52.220;20.978;2023-05-10T04:32:21;8.30;;;5.73;;
17570;SDS011;8903;52.220;20.978;2023-05-10T04:34:49;5.03;;;4.53;;
17570;SDS011;8903;52.220;20.978;2023-05-10T04:37:17;7.07;;;4.87;;
17570;SDS011;8903;52.220;20.978;2023-05-10T04:39:44;7.97;;;5.13;;
17570;SDS011;8903;52.220;20.978;2023-05-10T04:42:11;7.30;;;4.77;;
17570;SDS011;8903;52.220;20.978;2023-05-10T04:44:40;7.37;;;4.10;;
17570;SDS011;8903;52.220;20.978;2023-05-10T04:47:07;7.00;;;5.00;;
17570;SDS011;8903;52.220;20.978;2023-05-10T04:49:34;13.90;;;5.00;;
17570;SDS011;8903;52.220;20.978;2023-05-10T04:52:03;6.73;;;4.40;;
17570;SDS011;8903;52.220;20.978;2023-05-10T04:54:30;6.53;;;4.70;;
17570;SDS011;8903;52.220;20.978;2023-05-10T04:56:57;6.13;;;4.93;;
17570;SDS011;8903;52.220;20.978;2023-05-10T04:59:24;8.13;;;4.80;;
17570;SDS011;8903;52.220;20.978;2023-05-10T05:01:51;6.00;;;4.30;;
17570;SDS011;8903;52.220;20.978;2023-05-10T05:04:18;7.77;;;5.43;;
17570;SDS011;8903;52.220;20.978;2023-05-10T05:06:45;8.83;;;4.80;;
17570;SDS011;8903;52.220;20.978;2023-05-10T05:09:13;9.07;;;5.57;;
17570;SDS011;8903;52.220;20.978;2023-05-10T05:11:41;8.90;;;7.57;;
17570;SDS011;8903;52.220;20.978;2023-05-10T05:14:08;8.77;;;5.20;;
17570;SDS011;8903;52.220;20.978;2023-05-10T05:16:35;11.67;;;5.40;;
17570;SDS011;8903;52.220;20.978;2023-05-10T05:19:02;5.50;;;4.03;;
17570;SDS011;8903;52.220;20.978;2023-05-10T05:21:29;8.53;;;4.90;;
17570;SDS011;8903;52.220;20.978;2023-05-10T05:23:57;7.40;;;4.87;;
17570;SDS011;8903;52.220;20.978;2023-05-10T05:26:26;7.90;;;4.70;;
17570;SDS011;8903;52.220;20.978;2023-05-10T05:28:53;9.30;;;5.00;;
17570;SDS011;8903;52.220;20.978;2023-05-10T05:31:20;7.30;;;4.10;;
17570;SDS011;8903;52.220;20.978;2023-05-10T05:33:47;8.70;;;4.10;;
17570;SDS011;8903;52.220;20.978;2023-05-10T05:36:14;9.70;;;4.93;;
17570;SDS011;8903;52.220;20.978;2023-05-10T05:38:41;8.57;;;5.00;;
17570;SDS011;8903;52.220;20.978;2023-05-10T05:41:08;8.87;;;4.60;;
17570;SDS011;8903;52.220;20.978;2023-05-10T05:43:37;9.70;;;4.90;;
17570;SDS011;8903;52.220;20.978;2023-05-10T05:46:04;6.40;;;4.57;;
17570;SDS011;8903;52.220;20.978;2023-05-10T05:48:31;6.43;;;4.50;;
17570;SDS011;8903;52.220;20.978;2023-05-10T05:50:58;7.37;;;4.60;;
17570;SDS011;8903;52.220;20.978;2023-05-10T05:53:25;8.20;;;5.03;;
17570;SDS011;8903;52.220;20.978;2023-05-10T05:55:52;7.47;;;4.70;;
17570;SDS011;8903;52.220;20.978;2023-05-10T05:58:20;6.90;;;4.03;;
17570;SDS011;8903;52.220;20.978;2023-05-10T06:00:48;14.03;;;4.67;;
17570;SDS011;8903;52.220;20.978;2023-05-10T06:03:17;7.33;;;4.60;;
17570;SDS011;8903;52.220;20.978;2023-05-10T06:05:44;6.70;;;5.00;;
17570;SDS011;8903;52.220;20.978;2023-05-10T06:08:11;7.60;;;4.20;;
17570;SDS011;8903;52.220;20.978;2023-05-10T06:10:37;6.83;;;5.03;;
17570;SDS011;8903;52.220;20.978;2023-05-10T06:13:05;10.83;;;4.97;;
17570;SDS011;8903;52.220;20.978;2023-05-10T06:15:31;10.53;;;4.47;;
17570;SDS011;8903;52.220;20.978;2023-05-10T06:18:01;10.37;;;5.67;;
17570;SDS011;8903;52.220;20.978;2023-05-10T06:20:28;7.67;;;4.50;;
17570;SDS011;8903;52.220;20.978;2023-05-10T06:22:56;9.40;;;4.30;;
17570;SDS011;8903;52.220;20.978;2023-05-10T06:25:23;4.70;;;4.10;;
17570;SDS011;8903;52.220;20.978;2023-05-10T06:27:50;8.20;;;4.80;;
17570;SDS011;8903;52.220;20.978;2023-05-10T06:30:23;7.17;;;4.27;;
17570;SDS011;8903;52.220;20.978;2023-05-10T06:32:53;8.80;;;4.40;;
17570;SDS011;8903;52.220;20.978;2023-05-10T06:35:22;7.13;;;5.15;;
17570;SDS011;8903;52.220;20.978;2023-05-10T06:37:50;9.53;;;4.77;;
17570;SDS011;8903;52.220;20.978;2023-05-10T06:40:17;9.50;;;4.70;;
17570;SDS011;8903;52.220;20.978;2023-05-10T06:42:44;3.70;;;3.40;;
17570;SDS011;8903;52.220;20.978;2023-05-10T06:45:12;5.50;;;3.70;;
17570;SDS011;8903;52.220;20.978;2023-05-10T06:47:39;9.03;;;4.50;;
17570;SDS011;8903;52.220;20.978;2023-05-10T06:50:07;11.23;;;4.93;;
17570;SDS011;8903;52.220;20.978;2023-05-10T06:52:35;7.73;;;4.40;;
17570;SDS011;8903;52.220;20.978;2023-05-10T06:55:02;8.40;;;4.10;;
17570;SDS011;8903;52.220;20.978;2023-05-10T06:57:30;3.80;;;3.20;;
17570;SDS011;8903;52.220;20.978;2023-05-10T06:59:57;8.47;;;3.70;;
17570;SDS011;8903;52.220;20.978;2023-05-10T07:02:24;3.93;;;3.60;;
17570;SDS011;8903;52.220;20.978;2023-05-10T07:04:51;8.80;;;3.70;;
17570;SDS011;8903;52.220;20.978;2023-05-10T07:07:18;3.90;;;3.20;;
17570;SDS011;8903;52.220;20.978;2023-05-10T07:09:46;9.50;;;3.53;;
17570;SDS011;8903;52.220;20.978;2023-05-10T07:12:15;7.93;;;3.70;;
17570;SDS011;8903;52.220;20.978;2023-05-10T07:14:42;7.53;;;3.50;;
17570;SDS011;8903;52.220;20.978;2023-05-10T07:17:09;7.60;;;3.77;;
17570;SDS011;8903;52.220;20.978;2023-05-10T07:19:36;5.70;;;3.80;;
17570;SDS011;8903;52.220;20.978;2023-05-10T07:22:03;3.73;;;3.00;;
17570;SDS011;8903;52.220;20.978;2023-05-10T07:24:30;3.93;;;3.00;;
17570;SDS011;8903;52.220;20.978;2023-05-10T07:26:59;4.90;;;2.70;;
17570;SDS011;8903;52.220;20.978;2023-05-10T07:29:26;9.97;;;3.40;;
17570;SDS011;8903;52.220;20.978;2023-05-10T07:31:53;6.37;;;3.17;;
17570;SDS011;8903;52.220;20.978;2023-05-10T07:34:20;3.20;;;2.90;;
17570;SDS011;8903;52.220;20.978;2023-05-10T07:36:47;5.27;;;2.90;;
17570;SDS011;8903;52.220;20.978;2023-05-10T07:39:15;6.53;;;2.70;;
17570;SDS011;8903;52.220;20.978;2023-05-10T07:41:41;6.50;;;2.87;;
17570;SDS011;8903;52.220;20.978;2023-05-10T07:44:10;10.60;;;2.73;;
17570;SDS011;8903;52.220;20.978;2023-05-10T07:46:37;4.33;;;2.43;;
17570;SDS011;8903;52.220;20.978;2023-05-10T07:49:04;6.43;;;2.30;;
17570;SDS011;8903;52.220;20.978;2023-05-10T07:51:31;3.30;;;2.57;;
17570;SDS011;8903;52.220;20.978;2023-05-10T07:53:58;3.30;;;2.30;;
17570;SDS011;8903;52.220;20.978;2023-05-10T07:56:26;6.03;;;2.67;;
17570;SDS011;8903;52.220;20.978;2023-05-10T07:58:54;5.90;;;2.27;;
17570;SDS011;8903;52.220;20.978;2023-05-10T08:01:23;3.40;;;2.47;;
17570;SDS011;8903;52.220;20.978;2023-05-10T08:03:51;2.83;;;2.40;;
17570;SDS011;8903;52.220;20.978;2023-05-10T08:06:18;5.87;;;2.70;;
17570;SDS011;8903;52.220;20.978;2023-05-10T08:08:46;3.00;;;2.53;;
17570;SDS011;8903;52.220;20.978;2023-05-10T08:11:14;3.73;;;2.57;;
17570;SDS011;8903;52.220;20.978;2023-05-10T08:13:41;6.90;;;4.00;;
17570;SDS011;8903;52.220;20.978;2023-05-10T08:16:08;4.00;;;2.70;;
17570;SDS011;8903;52.220;20.978;2023-05-10T08:18:36;10.00;;;5.53;;
17570;SDS011;8903;52.220;20.978;2023-05-10T08:21:04;12.90;;;7.03;;
17570;SDS011;8903;52.220;20.978;2023-05-10T08:23:31;2.97;;;2.13;;
17570;SDS011;8903;52.220;20.978;2023-05-10T08:26:01;4.80;;;3.87;;
17570;SDS011;8903;52.220;20.978;2023-05-10T08:28:28;5.13;;;2.20;;
17570;SDS011;8903;52.220;20.978;2023-05-10T08:30:55;4.63;;;3.43;;
17570;SDS011;8903;52.220;20.978;2023-05-10T08:33:22;9.07;;;4.00;;
17570;SDS011;8903;52.220;20.978;2023-05-10T08:35:50;2.97;;;2.47;;
17570;SDS011;8903;52.220;20.978;2023-05-10T08:38:17;3.70;;;2.73;;
17570;SDS011;8903;52.220;20.978;2023-05-10T08:40:44;3.13;;;2.53;;
17570;SDS011;8903;52.220;20.978;2023-05-10T08:43:13;6.77;;;2.20;;
17570;SDS011;8903;52.220;20.978;2023-05-10T08:45:42;5.60;;;2.40;;
17570;SDS011;8903;52.220;20.978;2023-05-10T08:48:10;4.27;;;2.20;;
17570;SDS011;8903;52.220;20.978;2023-05-10T08:50:38;2.40;;;2.20;;
17570;SDS011;8903;52.220;20.978;2023-05-10T08:53:10;2.30;;;2.10;;
17570;SDS011;8903;52.220;20.978;2023-05-10T08:55:38;10.20;;;2.43;;
17570;SDS011;8903;52.220;20.978;2023-05-10T08:58:07;3.50;;;2.83;;
17570;SDS011;8903;52.220;20.978;2023-05-10T09:00:35;4.70;;;2.60;;
17570;SDS011;8903;52.220;20.978;2023-05-10T09:03:05;4.23;;;2.37;;
17570;SDS011;8903;52.220;20.978;2023-05-10T09:05:32;6.47;;;2.20;;
17570;SDS011;8903;52.220;20.978;2023-05-10T09:07:59;3.73;;;2.20;;
17570;SDS011;8903;52.220;20.978;2023-05-10T09:10:28;8.50;;;4.60;;
17570;SDS011;8903;52.220;20.978;2023-05-10T09:12:57;8.10;;;2.83;;
17570;SDS011;8903;52.220;20.978;2023-05-10T09:15:24;3.67;;;2.17;;
17570;SDS011;8903;52.220;20.978;2023-05-10T09:17:51;3.67;;;1.93;;
17570;SDS011;8903;52.220;20.978;2023-05-10T09:20:19;3.00;;;2.30;;
17570;SDS011;8903;52.220;20.978;2023-05-10T09:22:46;3.30;;;2.60;;
17570;SDS011;8903;52.220;20.978;2023-05-10T09:25:13;3.53;;;2.50;;
17570;SDS011;8903;52.220;20.978;2023-05-10T09:27:43;6.77;;;2.83;;
17570;SDS011;8903;52.220;20.978;2023-05-10T09:30:15;5.10;;;2.47;;
17570;SDS011;8903;52.220;20.978;2023-05-10T09:32:43;9.13;;;2.67;;
17570;SDS011;8903;52.220;20.978;2023-05-10T09:35:12;4.33;;;2.90;;
17570;SDS011;8903;52.220;20.978;2023-05-10T09:37:41;8.03;;;2.73;;
17570;SDS011;8903;52.220;20.978;2023-05-10T09:40:11;3.27;;;2.30;;
17570;SDS011;8903;52.220;20.978;2023-05-10T09:42:39;2.67;;;2.17;;
17570;SDS011;8903;52.220;20.978;2023-05-10T09:45:09;3.10;;;2.20;;
17570;SDS011;8903;52.220;20.978;2023-05-10T09:47:36;4.60;;;2.47;;
17570;SDS011;8903;52.220;20.978;2023-05-10T09:50:04;6.30;;;2.77;;
17570;SDS011;8903;52.220;20.978;2023-05-10T09:52:45;5.37;;;2.93;;
17570;SDS011;8903;52.220;20.978;2023-05-10T09:55:14;8.47;;;3.30;;
17570;SDS011;8903;52.220;20.978;2023-05-10T09:57:41;3.10;;;2.80;;
17570;SDS011;8903;52.220;20.978;2023-05-10T10:00:20;3.77;;;2.93;;
17570;SDS011;8903;52.220;20.978;2023-05-10T10:03:01;6.10;;;3.00;;
17570;SDS011;8903;52.220;20.978;2023-05-10T10:05:29;8.57;;;3.13;;
17570;SDS011;8903;52.220;20.978;2023-05-10T10:07:57;7.13;;;3.00;;
17570;SDS011;8903;52.220;20.978;2023-05-10T10:10:25;13.23;;;3.30;;
17570;SDS011;8903;52.220;20.978;2023-05-10T10:12:53;5.63;;;2.67;;
17570;SDS011;8903;52.220;20.978;2023-05-10T10:15:23;6.10;;;3.07;;
17570;SDS011;8903;52.220;20.978;2023-05-10T10:17:50;7.53;;;2.43;;
17570;SDS011;8903;52.220;20.978;2023-05-10T10:20:19;5.03;;;2.53;;
17570;SDS011;8903;52.220;20.978;2023-05-10T10:22:47;3.50;;;2.40;;
17570;SDS011;8903;52.220;20.978;2023-05-10T10:25:16;4.60;;;3.27;;
17570;SDS011;8903;52.220;20.978;2023-05-10T10:27:45;4.43;;;2.27;;
17570;SDS011;8903;52.220;20.978;2023-05-10T10:30:35;4.67;;;2.50;;
17570;SDS011;8903;52.220;20.978;2023-05-10T10:33:18;6.43;;;2.47;;
17570;SDS011;8903;52.220;20.978;2023-05-10T10:36:06;6.33;;;2.27;;
17570;SDS011;8903;52.220;20.978;2023-05-10T10:38:38;8.87;;;3.07;;
17570;SDS011;8903;52.220;20.978;2023-05-10T10:41:28;9.13;;;3.47;;
17570;SDS011;8903;52.220;20.978;2023-05-10T10:47:02;5.50;;;2.70;;
17570;SDS011;8903;52.220;20.978;2023-05-10T10:49:36;5.27;;;2.43;;
17570;SDS011;8903;52.220;20.978;2023-05-10T10:52:14;3.60;;;2.40;;
17570;SDS011;8903;52.220;20.978;2023-05-10T10:54:46;4.07;;;2.70;;
17570;SDS011;8903;52.220;20.978;2023-05-10T10:57:18;4.17;;;2.03;;
17570;SDS011;8903;52.220;20.978;2023-05-10T10:59:46;10.73;;;2.60;;
17570;SDS011;8903;52.220;20.978;2023-05-10T11:08:10;3.20;;;2.30;;
17570;SDS011;8903;52.220;20.978;2023-05-10T11:10:39;8.23;;;2.40;;
17570;SDS011;8903;52.220;20.978;2023-05-10T11:13:15;6.87;;;2.90;;
17570;SDS011;8903;52.220;20.978;2023-05-10T11:15:47;4.50;;;2.73;;
17570;SDS011;8903;52.220;20.978;2023-05-10T11:18:18;5.93;;;2.80;;
17570;SDS011;8903;52.220;20.978;2023-05-10T11:20:51;5.30;;;2.20;;
17570;SDS011;8903;52.220;20.978;2023-05-10T11:23:18;6.30;;;2.03;;
17570;SDS011;8903;52.220;20.978;2023-05-10T11:25:47;5.70;;;2.70;;
17570;SDS011;8903;52.220;20.978;2023-05-10T11:28:16;5.77;;;2.40;;
17570;SDS011;8903;52.220;20.978;2023-05-10T11:30:44;7.77;;;2.87;;
17570;SDS011;8903;52.220;20.978;2023-05-10T11:33:15;7.50;;;3.10;;
17570;SDS011;8903;52.220;20.978;2023-05-10T11:35:44;4.00;;;2.40;;
17570;SDS011;8903;52.220;20.978;2023-05-10T11:38:13;7.43;;;3.13;;
17570;SDS011;8903;52.220;20.978;2023-05-10T11:40:40;9.90;;;2.70;;
17570;SDS011;8903;52.220;20.978;2023-05-10T11:43:08;3.23;;;2.77;;
17570;SDS011;8903;52.220;20.978;2023-05-10T11:45:36;7.03;;;2.13;;
17570;SDS011;8903;52.220;20.978;2023-05-10T11:48:04;5.03;;;3.00;;
17570;SDS011;8903;52.220;20.978;2023-05-10T11:50:31;4.73;;;2.73;;
17570;SDS011;8903;52.220;20.978;2023-05-10T11:52:58;4.63;;;2.13;;
17570;SDS011;8903;52.220;20.978;2023-05-10T11:55:27;6.73;;;2.70;;
17570;SDS011;8903;52.220;20.978;2023-05-10T11:57:55;3.40;;;1.93;;
17570;SDS011;8903;52.220;20.978;2023-05-10T12:00:27;4.37;;;2.33;;
17570;SDS011;8903;52.220;20.978;2023-05-10T12:02:54;5.40;;;2.40;;
17570;SDS011;8903;52.220;20.978;2023-05-10T12:05:21;10.93;;;2.97;;
17570;SDS011;8903;52.220;20.978;2023-05-10T12:07:48;5.97;;;2.60;;
17570;SDS011;8903;52.220;20.978;2023-05-10T12:10:17;4.83;;;2.40;;
17570;SDS011;8903;52.220;20.978;2023-05-10T12:12:53;5.07;;;2.00;;
17570;SDS011;8903;52.220;20.978;2023-05-10T12:15:20;5.63;;;2.20;;
17570;SDS011;8903;52.220;20.978;2023-05-10T12:17:48;5.97;;;2.50;;
17570;SDS011;8903;52.220;20.978;2023-05-10T12:20:16;3.20;;;2.40;;
17570;SDS011;8903;52.220;20.978;2023-05-10T12:22:45;5.67;;;2.50;;
17570;SDS011;8903;52.220;20.978;2023-05-10T12:25:15;3.40;;;2.40;;
17570;SDS011;8903;52.220;20.978;2023-05-10T12:27:48;3.57;;;2.27;;
17570;SDS011;8903;52.220;20.978;2023-05-10T12:30:20;5.33;;;2.80;;
17570;SDS011;8903;52.220;20.978;2023-05-10T12:32:48;5.50;;;2.40;;
17570;SDS011;8903;52.220;20.978;2023-05-10T12:35:15;6.47;;;3.20;;
17570;SDS011;8903;52.220;20.978;2023-05-10T12:37:44;3.63;;;2.43;;
17570;SDS011;8903;52.220;20.978;2023-05-10T12:40:11;4.47;;;2.63;;
17570;SDS011;8903;52.220;20.978;2023-05-10T12:42:38;21.23;;;6.97;;
17570;SDS011;8903;52.220;20.978;2023-05-10T12:45:07;2.40;;;2.20;;
17570;SDS011;8903;52.220;20.978;2023-05-10T12:47:35;4.30;;;2.40;;
17570;SDS011;8903;52.220;20.978;2023-05-10T12:50:02;4.50;;;2.00;;
17570;SDS011;8903;52.220;20.978;2023-05-10T12:52:30;10.80;;;2.60;;
17570;SDS011;8903;52.220;20.978;2023-05-10T12:54:58;9.40;;;3.10;;
17570;SDS011;8903;52.220;20.978;2023-05-10T12:57:25;8.50;;;2.60;;
17570;SDS011;8903;52.220;20.978;2023-05-10T12:59:52;3.87;;;2.27;;
17570;SDS011;8903;52.220;20.978;2023-05-10T13:02:21;5.13;;;2.50;;
17570;SDS011;8903;52.220;20.978;2023-05-10T13:04:49;2.70;;;1.83;;
17570;SDS011;8903;52.220;20.978;2023-05-10T13:07:17;5.53;;;2.27;;
17570;SDS011;8903;52.220;20.978;2023-05-10T13:09:44;6.63;;;2.40;;
17570;SDS011;8903;52.220;20.978;2023-05-10T13:12:12;7.80;;;2.73;;
17570;SDS011;8903;52.220;20.978;2023-05-10T13:14:39;7.60;;;2.77;;
17570;SDS011;8903;52.220;20.978;2023-05-10T13:17:08;8.40;;;3.57;;
17570;SDS011;8903;52.220;20.978;2023-05-10T13:19:36;4.80;;;2.10;;
17570;SDS011;8903;52.220;20.978;2023-05-10T13:22:03;4.80;;;2.53;;
17570;SDS011;8903;52.220;20.978;2023-05-10T13:24:30;3.90;;;2.70;;
17570;SDS011;8903;52.220;20.978;2023-05-10T13:26:57;5.37;;;2.20;;
17570;SDS011;8903;52.220;20.978;2023-05-10T13:29:25;3.40;;;2.30;;
17570;SDS011;8903;52.220;20.978;2023-05-10T13:31:54;2.73;;;2.30;;
17570;SDS011;8903;52.220;20.978;2023-05-10T13:34:22;6.27;;;2.67;;
17570;SDS011;8903;52.220;20.978;2023-05-10T13:36:51;3.37;;;2.37;;
17570;SDS011;8903;52.220;20.978;2023-05-10T13:39:19;3.50;;;2.27;;
17570;SDS011;8903;52.220;20.978;2023-05-10T13:41:46;3.13;;;2.20;;
17570;SDS011;8903;52.220;20.978;2023-05-10T13:44:14;2.90;;;1.97;;
17570;SDS011;8903;52.220;20.978;2023-05-10T13:46:41;5.70;;;2.17;;
17570;SDS011;8903;52.220;20.978;2023-05-10T13:49:09;2.83;;;2.50;;
17570;SDS011;8903;52.220;20.978;2023-05-10T13:51:37;4.77;;;2.33;;
17570;SDS011;8903;52.220;20.978;2023-05-10T13:54:05;2.53;;;2.00;;
17570;SDS011;8903;52.220;20.978;2023-05-10T13:56:32;6.30;;;2.23;;
17570;SDS011;8903;52.220;20.978;2023-05-10T13:59:00;8.03;;;2.20;;
17570;SDS011;8903;52.220;20.978;2023-05-10T14:01:27;7.80;;;2.13;;
17570;SDS011;8903;52.220;20.978;2023-05-10T14:03:54;3.37;;;1.93;;
17570;SDS011;8903;52.220;20.978;2023-05-10T14:06:21;2.50;;;2.30;;
17570;SDS011;8903;52.220;20.978;2023-05-10T14:08:48;6.93;;;2.17;;
17570;SDS011;8903;52.220;20.978;2023-05-10T14:11:17;3.13;;;2.23;;
17570;SDS011;8903;52.220;20.978;2023-05-10T14:13:44;6.53;;;2.60;;
17570;SDS011;8903;52.220;20.978;2023-05-10T14:16:12;8.30;;;2.70;;
17570;SDS011;8903;52.220;20.978;2023-05-10T14:18:40;3.80;;;1.90;;
17570;SDS011;8903;52.220;20.978;2023-05-10T14:21:07;4.70;;;1.93;;
17570;SDS011;8903;52.220;20.978;2023-05-10T14:23:35;11.73;;;2.60;;
17570;SDS011;8903;52.220;20.978;2023-05-10T14:26:02;3.77;;;2.30;;
17570;SDS011;8903;52.220;20.978;2023-05-10T14:28:31;4.47;;;2.60;;
17570;SDS011;8903;52.220;20.978;2023-05-10T14:30:58;4.10;;;2.50;;
17570;SDS011;8903;52.220;20.978;2023-05-10T14:33:25;2.43;;;2.10;;
17570;SDS011;8903;52.220;20.978;2023-05-10T14:35:53;2.17;;;1.90;;
17570;SDS011;8903;52.220;20.978;2023-05-10T14:38:21;2.10;;;1.80;;
17570;SDS011;8903;52.220;20.978;2023-05-10T14:40:48;4.20;;;1.83;;
17570;SDS011;8903;52.220;20.978;2023-05-10T14:43:16;3.90;;;2.30;;
17570;SDS011;8903;52.220;20.978;2023-05-10T14:45:44;5.53;;;2.20;;
17570;SDS011;8903;52.220;20.978;2023-05-10T14:48:11;5.93;;;2.47;;
17570;SDS011;8903;52.220;20.978;2023-05-10T14:50:41;2.70;;;1.83;;
17570;SDS011;8903;52.220;20.978;2023-05-10T14:53:08;4.00;;;2.33;;
17570;SDS011;8903;52.220;20.978;2023-05-10T14:55:36;6.97;;;2.33;;
17570;SDS011;8903;52.220;20.978;2023-05-10T14:58:04;4.70;;;1.87;;
17570;SDS011;8903;52.220;20.978;2023-05-10T15:00:31;4.43;;;2.50;;
17570;SDS011;8903;52.220;20.978;2023-05-10T15:03:00;3.70;;;1.97;;
17570;SDS011;8903;52.220;20.978;2023-05-10T15:05:28;6.07;;;2.03;;